createdAt,value
2023-05-02T00:01:25.923Z,66.80
2023-05-02T00:03:55.431Z,67.00
2023-05-02T00:06:25.117Z,67.00
2023-05-02T00:08:54.942Z,66.90
2023-05-02T00:11:24.235Z,66.80
2023-05-02T00:13:55.156Z,66.90
2023-05-02T00:16:24.621Z,67.00
2023-05-02T00:18:54.063Z,66.90
2023-05-02T00:21:23.508Z,67.00
2023-05-02T00:23:52.824Z,67.00
2023-05-02T00:26:21.927Z,67.00
2023-05-02T00:28:51.531Z,66.90
2023-05-02T00:31:22.092Z,66.90
2023-05-02T00:33:51.516Z,67.00
2023-05-02T00:36:21.219Z,67.00
2023-05-02T00:38:51.177Z,67.10
2023-05-02T00:41:20.577Z,67.20
2023-05-02T00:43:49.759Z,67.20
2023-05-02T00:46:18.928Z,67.30
2023-05-02T00:48:49.351Z,67.40
2023-05-02T00:51:18.781Z,67.50
2023-05-02T00:53:47.845Z,67.60
2023-05-02T00:56:17.027Z,67.80
2023-05-02T00:58:47.572Z,67.90
2023-05-02T01:01:27.749Z,68.80
2023-05-02T01:04:12.024Z,68.30
2023-05-02T01:06:52.823Z,68.40
2023-05-02T01:09:31.276Z,68.40
2023-05-02T01:12:04.480Z,68.40
2023-05-02T01:14:37.221Z,68.30
2023-05-02T01:17:11.203Z,68.20
2023-05-02T01:19:44.748Z,68.20
2023-05-02T01:22:15.184Z,68.20
2023-05-02T01:24:54.179Z,68.20
2023-05-02T01:27:41.390Z,68.20
2023-05-02T01:30:14.435Z,68.10
2023-05-02T01:32:46.705Z,68.10
2023-05-02T01:35:17.497Z,67.90
2023-05-02T01:37:47.878Z,67.80
2023-05-02T01:40:22.586Z,67.80
2023-05-02T01:42:53.601Z,67.90
2023-05-02T01:45:26.703Z,67.80
2023-05-02T01:47:56.435Z,68.00
2023-05-02T01:50:27.536Z,68.00
2023-05-02T01:52:59.577Z,68.00
2023-05-02T01:55:30.067Z,67.80
2023-05-02T01:57:59.294Z,67.60
2023-05-02T02:00:31.642Z,67.60
2023-05-02T02:03:01.442Z,67.50
2023-05-02T02:05:32.158Z,67.60
2023-05-02T02:08:01.359Z,67.70
2023-05-02T02:10:36.810Z,67.70
2023-05-02T02:13:12.707Z,67.80
2023-05-02T02:15:46.250Z,67.80
2023-05-02T02:18:22.515Z,67.90
2023-05-02T02:20:52.705Z,68.00
2023-05-02T02:23:26.937Z,68.10
2023-05-02T02:25:57.790Z,68.10
2023-05-02T02:28:27.062Z,68.00
2023-05-02T02:30:58.984Z,67.90
2023-05-02T02:33:32.155Z,67.80
2023-05-02T02:36:14.056Z,67.90
2023-05-02T02:38:49.565Z,68.00
2023-05-02T02:41:24.508Z,68.00
2023-05-02T02:44:05.500Z,68.00
2023-05-02T02:46:52.263Z,68.00
2023-05-02T02:49:33.068Z,67.90
2023-05-02T02:52:08.771Z,68.00
2023-05-02T02:54:46.620Z,68.10
2023-05-02T02:57:19.749Z,68.10
2023-05-02T02:59:59.485Z,68.10
2023-05-02T03:02:33.869Z,68.10
2023-05-02T03:05:04.646Z,68.10
2023-05-02T03:07:34.552Z,68.00
2023-05-02T03:10:05.892Z,67.80
2023-05-02T03:12:36.896Z,67.80
2023-05-02T03:15:20.284Z,67.80
2023-05-02T03:17:51.118Z,67.80
2023-05-02T03:20:21.125Z,67.80
2023-05-02T03:22:50.741Z,67.80
2023-05-02T03:25:19.805Z,67.90
2023-05-02T03:27:51.623Z,68.10
2023-05-02T03:30:21.464Z,68.10
2023-05-02T03:32:52.438Z,68.10
2023-05-02T03:35:21.969Z,68.10
2023-05-02T03:37:53.555Z,68.00
2023-05-02T03:40:23.044Z,68.00
2023-05-02T03:42:52.173Z,67.90
2023-05-02T03:45:28.057Z,67.80
2023-05-02T03:47:59.248Z,67.90
2023-05-02T03:50:28.138Z,67.80
2023-05-02T03:52:58.722Z,67.80
2023-05-02T03:55:41.071Z,67.90
2023-05-02T03:58:12.781Z,68.10
2023-05-02T04:00:42.035Z,68.10
2023-05-02T04:03:13.129Z,68.30
2023-05-02T04:05:45.502Z,68.40
2023-05-02T04:08:17.299Z,68.50
2023-05-02T04:10:47.180Z,68.50
2023-05-02T04:13:17.131Z,68.60
2023-05-02T04:15:49.219Z,68.60
2023-05-02T04:18:24.173Z,68.60
2023-05-02T04:20:54.554Z,68.60
2023-05-02T04:23:25.968Z,68.60
2023-05-02T04:26:00.044Z,68.60
2023-05-02T04:28:38.553Z,68.80
2023-05-02T04:31:07.723Z,68.80
2023-05-02T04:33:38.430Z,68.80
2023-05-02T04:36:32.751Z,68.80
2023-05-02T04:39:03.747Z,68.80
2023-05-02T04:41:36.178Z,68.80
2023-05-02T04:44:08.615Z,68.80
2023-05-02T04:46:39.471Z,68.60
2023-05-02T04:49:11.652Z,68.50
2023-05-02T04:51:40.893Z,69.40
2023-05-02T04:54:10.552Z,68.70
2023-05-02T04:56:40.322Z,68.60
2023-05-02T04:59:09.702Z,68.50
2023-05-02T05:01:39.131Z,68.50
2023-05-02T05:04:11.910Z,68.40
2023-05-02T05:06:41.282Z,68.40
2023-05-02T05:09:10.881Z,68.40
2023-05-02T05:11:42.849Z,68.50
2023-05-02T05:14:12.389Z,68.40
2023-05-02T05:16:44.568Z,68.50
2023-05-02T05:19:15.850Z,68.60
2023-05-02T05:21:45.088Z,68.60
2023-05-02T05:24:16.098Z,68.40
2023-05-02T05:26:45.421Z,68.40
2023-05-02T05:29:14.652Z,68.30
2023-05-02T05:31:45.010Z,68.40
2023-05-02T05:34:19.282Z,68.70
2023-05-02T05:36:49.830Z,68.60
2023-05-02T05:39:20.118Z,68.60
2023-05-02T05:41:51.802Z,68.30
2023-05-02T05:44:22.311Z,68.10
2023-05-02T05:46:52.844Z,68.10
2023-05-02T05:49:25.462Z,68.30
2023-05-02T05:51:55.440Z,68.40
2023-05-02T05:54:25.052Z,68.70
2023-05-02T05:56:54.239Z,69.00
2023-05-02T05:59:23.588Z,69.10
2023-05-02T06:01:54.141Z,69.20
2023-05-02T06:04:26.909Z,69.10
2023-05-02T06:06:56.231Z,69.20
2023-05-02T06:09:26.254Z,69.10
2023-05-02T06:11:55.776Z,68.90
2023-05-02T06:14:25.296Z,68.80
2023-05-02T06:16:55.609Z,68.80
2023-05-02T06:19:26.126Z,68.80
2023-05-02T06:21:55.563Z,68.60
2023-05-02T06:24:24.822Z,68.40
2023-05-02T06:26:53.859Z,68.40
2023-05-02T06:29:23.031Z,68.50
2023-05-02T06:31:56.579Z,68.60
2023-05-02T06:34:27.086Z,68.80
2023-05-02T06:36:57.409Z,68.70
2023-05-02T06:39:29.648Z,68.70
2023-05-02T06:42:00.452Z,68.70
2023-05-02T06:44:31.127Z,68.60
2023-05-02T06:47:00.962Z,68.50
2023-05-02T06:49:31.703Z,68.50
2023-05-02T06:52:00.917Z,68.40
2023-05-02T06:54:30.011Z,68.30
2023-05-02T06:57:00.959Z,68.40
2023-05-02T06:59:30.280Z,68.40
2023-05-02T07:01:59.605Z,68.40
2023-05-02T07:04:29.023Z,68.40
2023-05-02T07:06:59.624Z,68.50
2023-05-02T07:09:28.881Z,68.20
2023-05-02T07:11:58.202Z,68.20
2023-05-02T07:14:27.291Z,68.30
2023-05-02T07:16:56.944Z,68.20
2023-05-02T07:19:26.257Z,68.40
2023-05-02T07:21:55.642Z,68.50
2023-05-02T07:24:26.404Z,68.60
2023-05-02T07:26:55.630Z,68.70
2023-05-02T07:29:24.892Z,68.50
2023-05-02T07:31:54.196Z,68.40
2023-05-02T07:34:23.472Z,68.30
2023-05-02T07:36:52.791Z,68.30
2023-05-02T07:39:21.895Z,68.40
2023-05-02T07:41:54.547Z,68.30
2023-05-02T07:44:24.209Z,68.20
2023-05-02T07:46:54.023Z,68.20
2023-05-02T07:49:23.229Z,68.30
2023-05-02T07:51:52.761Z,67.90
2023-05-02T07:54:26.192Z,67.90
2023-05-02T07:57:02.146Z,68.20
2023-05-02T07:59:32.549Z,68.40
2023-05-02T08:02:03.246Z,68.60
2023-05-02T08:04:32.616Z,68.60
2023-05-02T08:07:01.889Z,68.60
2023-05-02T08:09:31.269Z,68.30
2023-05-02T08:12:02.594Z,68.30
2023-05-02T08:14:32.013Z,67.80
2023-05-02T08:17:01.572Z,67.70
2023-05-02T08:19:30.914Z,67.90
2023-05-02T08:22:00.503Z,68.00
2023-05-02T08:24:31.275Z,67.60
2023-05-02T08:27:03.337Z,67.30
2023-05-02T08:29:32.740Z,67.20
2023-05-02T08:32:02.152Z,67.40
2023-05-02T08:34:33.951Z,67.60
2023-05-02T08:37:03.681Z,67.60
2023-05-02T08:39:34.542Z,67.70
2023-05-02T08:42:07.874Z,67.70
2023-05-02T08:44:38.088Z,67.40
2023-05-02T08:47:07.812Z,67.30
2023-05-02T08:49:38.084Z,67.40
2023-05-02T08:52:09.347Z,67.30
2023-05-02T08:54:39.756Z,67.10
2023-05-02T08:57:10.644Z,66.80
2023-05-02T08:59:39.839Z,66.70
2023-05-02T09:02:15.595Z,67.10
2023-05-02T09:04:45.812Z,67.90
2023-05-02T09:07:15.471Z,67.40
2023-05-02T09:09:44.936Z,67.30
2023-05-02T09:12:16.299Z,66.70
2023-05-02T09:14:46.022Z,66.30
2023-05-02T09:17:15.312Z,65.80
2023-05-02T09:19:44.562Z,65.70
2023-05-02T09:22:24.274Z,65.40
2023-05-02T09:24:56.006Z,65.20
2023-05-02T09:27:26.911Z,65.60
2023-05-02T09:30:22.139Z,65.30
2023-05-02T09:32:52.426Z,65.60
2023-05-02T09:35:24.600Z,65.90
2023-05-02T09:37:55.237Z,65.40
2023-05-02T09:40:25.245Z,65.40
2023-05-02T09:42:58.015Z,65.20
2023-05-02T09:45:27.697Z,64.80
2023-05-02T09:48:03.817Z,64.40
2023-05-02T09:50:37.754Z,64.30
2023-05-02T09:53:09.555Z,64.70
2023-05-02T09:55:41.213Z,64.60
2023-05-02T09:58:23.066Z,64.60
2023-05-02T10:00:52.928Z,64.40
2023-05-02T10:03:24.514Z,64.80
2023-05-02T10:05:55.224Z,64.60
2023-05-02T10:08:27.376Z,64.90
2023-05-02T10:10:58.116Z,64.40
2023-05-02T10:13:32.340Z,64.60
2023-05-02T10:16:02.743Z,63.40
2023-05-02T10:18:40.020Z,63.20
2023-05-02T10:21:11.520Z,63.40
2023-05-02T10:23:44.445Z,63.20
2023-05-02T10:26:16.148Z,62.90
2023-05-02T10:28:47.238Z,63.00
2023-05-02T10:31:17.900Z,62.70
2023-05-02T10:33:51.746Z,62.40
2023-05-02T10:36:23.004Z,60.70
2023-05-02T10:38:52.647Z,60.60
2023-05-02T10:41:26.379Z,60.50
2023-05-02T10:43:56.895Z,58.50
2023-05-02T10:46:33.286Z,58.90
2023-05-02T10:49:04.713Z,58.80
2023-05-02T10:51:34.416Z,59.20
2023-05-02T10:54:23.344Z,58.90
2023-05-02T10:57:06.822Z,58.80
2023-05-02T10:59:38.740Z,59.30
2023-05-02T11:02:48.738Z,58.70
2023-05-02T11:05:19.636Z,58.20
2023-05-02T11:07:48.748Z,58.60
2023-05-02T11:10:31.444Z,58.10
2023-05-02T11:13:02.031Z,58.10
2023-05-02T11:15:59.832Z,57.40
2023-05-02T11:18:49.675Z,56.70
2023-05-02T11:21:32.066Z,57.00
2023-05-02T11:24:38.795Z,57.00
2023-05-02T11:27:39.208Z,57.20
2023-05-02T11:30:10.228Z,57.60
2023-05-02T11:33:22.587Z,57.20
2023-05-02T11:35:51.547Z,57.20
2023-05-02T11:38:25.597Z,57.10
2023-05-02T11:40:59.452Z,56.90
2023-05-02T11:43:31.882Z,56.80
2023-05-02T11:46:03.045Z,56.30
2023-05-02T11:48:32.838Z,56.60
2023-05-02T11:51:05.034Z,56.50
2023-05-02T11:53:41.805Z,56.50
2023-05-02T11:56:11.145Z,56.60
2023-05-02T11:58:41.654Z,56.50
2023-05-02T12:01:14.837Z,56.40
2023-05-02T12:03:45.061Z,55.40
2023-05-02T12:06:15.953Z,54.60
2023-05-02T12:08:47.025Z,55.30
2023-05-02T12:11:17.257Z,55.20
2023-05-02T12:13:48.373Z,55.30
2023-05-02T12:16:18.563Z,55.10
2023-05-02T12:18:48.999Z,55.20
2023-05-02T12:21:18.856Z,55.30
2023-05-02T12:23:49.859Z,54.80
2023-05-02T12:26:20.326Z,54.90
2023-05-02T12:28:51.009Z,54.80
2023-05-02T12:31:20.766Z,55.00
2023-05-02T12:33:52.852Z,55.20
2023-05-02T12:36:22.452Z,56.10
2023-05-02T12:38:57.137Z,55.00
2023-05-02T12:41:33.512Z,55.40
2023-05-02T12:44:03.119Z,55.20
2023-05-02T12:46:32.938Z,55.30
2023-05-02T12:49:10.197Z,55.30
2023-05-02T12:51:39.752Z,55.30
2023-05-02T12:54:21.037Z,55.50
2023-05-02T12:56:52.142Z,55.10
2023-05-02T12:59:29.055Z,55.30
2023-05-02T13:01:58.635Z,55.00
2023-05-02T13:04:35.736Z,54.90
2023-05-02T13:07:05.430Z,54.80
2023-05-02T13:09:36.145Z,54.10
2023-05-02T13:12:06.256Z,54.20
2023-05-02T13:14:35.451Z,54.50
2023-05-02T13:17:05.086Z,54.10
2023-05-02T13:19:34.607Z,54.40
2023-05-02T13:22:03.926Z,54.40
2023-05-02T13:24:32.921Z,54.60
2023-05-02T13:27:03.689Z,54.50
2023-05-02T13:29:32.830Z,53.90
2023-05-02T13:32:02.610Z,53.70
2023-05-02T13:34:32.003Z,52.80
2023-05-02T13:37:01.275Z,53.60
2023-05-02T13:39:30.744Z,53.60
2023-05-02T13:42:00.189Z,53.80
2023-05-02T13:44:30.775Z,53.40
2023-05-02T13:47:00.181Z,53.20
2023-05-02T13:49:30.106Z,53.10
2023-05-02T13:51:59.411Z,51.60
2023-05-02T13:54:28.801Z,51.50
2023-05-02T13:56:58.115Z,51.60
2023-05-02T13:59:27.333Z,50.80
2023-05-02T14:01:58.646Z,50.50
2023-05-02T14:04:27.935Z,49.80
2023-05-02T14:07:00.293Z,48.90
2023-05-02T14:09:35.676Z,48.90
2023-05-02T14:12:05.486Z,48.90
2023-05-02T14:15:02.981Z,49.70
2023-05-02T14:17:34.103Z,49.30
2023-05-02T14:20:03.729Z,49.20
2023-05-02T14:22:33.035Z,49.50
2023-05-02T14:25:02.117Z,49.50
2023-05-02T14:27:31.324Z,49.50
2023-05-02T14:30:01.203Z,48.80
2023-05-02T14:32:33.359Z,48.50
2023-05-02T14:35:02.729Z,47.90
2023-05-02T14:37:31.916Z,48.30
2023-05-02T14:40:04.992Z,48.40
2023-05-02T14:42:34.500Z,47.80
2023-05-02T14:45:03.646Z,47.50
2023-05-02T14:47:34.656Z,47.90
2023-05-02T14:50:05.072Z,47.70
2023-05-02T14:52:34.657Z,47.80
2023-05-02T14:55:04.342Z,47.30
2023-05-02T14:57:34.161Z,47.40
2023-05-02T15:00:04.630Z,47.20
2023-05-02T15:02:36.074Z,46.70
2023-05-02T15:05:07.231Z,46.30
2023-05-02T15:07:36.481Z,46.60
2023-05-02T15:10:06.541Z,46.90
2023-05-02T15:12:35.701Z,47.10
2023-05-02T15:15:05.625Z,47.50
2023-05-02T15:17:36.199Z,47.10
2023-05-02T15:20:07.114Z,46.90
2023-05-02T15:22:36.375Z,47.20
2023-05-02T15:25:06.789Z,47.30
2023-05-02T15:27:36.113Z,47.60
2023-05-02T15:30:06.720Z,47.60
2023-05-02T15:32:37.473Z,47.70
2023-05-02T15:35:07.874Z,48.10
2023-05-02T15:37:37.202Z,48.50
2023-05-02T15:40:08.126Z,48.60
2023-05-02T15:42:37.752Z,48.60
2023-05-02T15:45:08.242Z,48.90
2023-05-02T15:47:38.817Z,49.00
2023-05-02T15:50:10.637Z,49.00
2023-05-02T15:52:39.875Z,49.10
2023-05-02T15:55:09.550Z,49.20
2023-05-02T15:57:39.363Z,49.20
2023-05-02T16:00:15.924Z,49.00
2023-05-02T16:02:46.643Z,49.30
2023-05-02T16:05:15.931Z,49.40
2023-05-02T16:07:45.084Z,49.50
2023-05-02T16:10:20.923Z,49.50
2023-05-02T16:12:50.100Z,49.60
2023-05-02T16:15:19.505Z,49.20
2023-05-02T16:17:50.945Z,49.10
2023-05-02T16:20:20.685Z,49.00
2023-05-02T16:22:49.999Z,49.00
2023-05-02T16:25:19.641Z,48.70
2023-05-02T16:27:48.805Z,48.90
2023-05-02T16:30:18.271Z,49.10
2023-05-02T16:32:47.414Z,49.10
2023-05-02T16:35:19.862Z,49.20
2023-05-02T16:37:49.455Z,49.40
2023-05-02T16:40:19.794Z,49.60
2023-05-02T16:42:49.006Z,49.70
2023-05-02T16:45:18.235Z,49.90
2023-05-02T16:47:47.752Z,50.00
2023-05-02T16:50:18.429Z,50.00
2023-05-02T16:52:47.801Z,50.00
2023-05-02T16:55:17.718Z,50.30
2023-05-02T16:57:47.102Z,50.30
2023-05-02T17:00:17.729Z,50.20
2023-05-02T17:02:47.545Z,50.40
2023-05-02T17:05:19.949Z,50.50
2023-05-02T17:07:49.162Z,50.60
2023-05-02T17:10:18.971Z,50.70
2023-05-02T17:12:48.295Z,50.80
2023-05-02T17:15:17.683Z,51.00
2023-05-02T17:17:46.681Z,51.10
2023-05-02T17:20:17.302Z,51.20
2023-05-02T17:22:48.112Z,51.20
2023-05-02T17:25:17.306Z,51.40
2023-05-02T17:27:47.136Z,51.60
2023-05-02T17:30:16.630Z,51.70
2023-05-02T17:32:45.647Z,51.80
2023-05-02T17:35:16.305Z,52.00
2023-05-02T17:37:46.885Z,52.00
2023-05-02T17:40:16.971Z,52.20
2023-05-02T17:42:46.724Z,52.30
2023-05-02T17:45:16.605Z,52.40
2023-05-02T17:47:45.766Z,52.60
2023-05-02T17:50:15.119Z,52.70
2023-05-02T17:52:44.398Z,52.80
2023-05-02T17:55:15.343Z,52.90
2023-05-02T17:57:45.782Z,53.00
2023-05-02T18:00:16.572Z,53.20
2023-05-02T18:02:45.855Z,53.20
2023-05-02T18:05:15.179Z,53.30
2023-05-02T18:07:44.448Z,53.30
2023-05-02T18:10:15.014Z,53.40
2023-05-02T18:12:44.295Z,53.50
2023-05-02T18:15:13.988Z,53.60
2023-05-02T18:17:43.096Z,53.70
2023-05-02T18:20:12.585Z,53.80
2023-05-02T18:22:42.176Z,53.80
2023-05-02T18:25:11.688Z,54.00
2023-05-02T18:27:42.342Z,54.10
2023-05-02T18:30:12.498Z,54.30
2023-05-02T18:32:41.684Z,54.40
2023-05-02T18:35:11.401Z,54.40
2023-05-02T18:37:41.096Z,54.60
2023-05-02T18:40:11.003Z,54.60
2023-05-02T18:42:41.695Z,54.70
2023-05-02T18:45:11.219Z,54.90
2023-05-02T18:47:40.447Z,55.10
2023-05-02T18:50:10.152Z,55.10
2023-05-02T18:52:39.498Z,55.30
2023-05-02T18:55:09.104Z,55.30
2023-05-02T18:57:38.405Z,55.40
2023-05-02T19:00:10.214Z,55.50
2023-05-02T19:02:39.708Z,55.70
2023-05-02T19:05:10.698Z,56.30
2023-05-02T19:07:40.058Z,55.90
2023-05-02T19:10:10.962Z,55.60
2023-05-02T19:12:41.913Z,55.40
2023-05-02T19:15:13.367Z,55.30
2023-05-02T19:17:44.481Z,55.30
2023-05-02T19:20:13.969Z,55.30
2023-05-02T19:22:43.367Z,55.30
2023-05-02T19:25:12.975Z,55.40
2023-05-02T19:27:42.474Z,55.30
2023-05-02T19:30:14.206Z,55.40
2023-05-02T19:32:43.561Z,55.30
2023-05-02T19:35:13.473Z,55.30
2023-05-02T19:37:44.000Z,55.30
2023-05-02T19:40:14.510Z,55.30
2023-05-02T19:42:43.843Z,55.30
2023-05-02T19:45:14.722Z,55.40
2023-05-02T19:47:45.517Z,56.10
2023-05-02T19:50:15.290Z,55.50
2023-05-02T19:52:45.128Z,55.50
2023-05-02T19:55:16.052Z,55.60
2023-05-02T19:57:45.608Z,55.60
2023-05-02T20:00:17.165Z,55.80
2023-05-02T20:02:48.685Z,55.80
2023-05-02T20:05:19.420Z,55.70
2023-05-02T20:07:48.623Z,55.80
2023-05-02T20:10:18.842Z,55.90
2023-05-02T20:12:48.118Z,55.90
2023-05-02T20:15:18.690Z,56.00
2023-05-02T20:17:47.869Z,56.10
2023-05-02T20:20:17.365Z,56.10
2023-05-02T20:22:46.830Z,56.30
2023-05-02T20:25:16.142Z,56.80
2023-05-02T20:27:45.532Z,56.20
2023-05-02T20:30:15.005Z,56.30
2023-05-02T20:32:45.609Z,56.40
2023-05-02T20:35:14.949Z,56.40
2023-05-02T20:37:44.108Z,56.60
2023-05-02T20:40:14.070Z,56.60
2023-05-02T20:42:43.993Z,56.80
2023-05-02T20:45:14.221Z,56.80
2023-05-02T20:47:43.354Z,56.90
2023-05-02T20:50:13.934Z,57.10
2023-05-02T20:52:43.135Z,57.10
2023-05-02T20:55:12.179Z,57.10
2023-05-02T20:57:41.497Z,57.20
2023-05-02T21:00:13.431Z,57.30
2023-05-02T21:02:42.529Z,57.40
2023-05-02T21:05:13.243Z,57.50
2023-05-02T21:07:42.404Z,57.60
2023-05-02T21:10:12.247Z,57.70
2023-05-02T21:12:41.476Z,57.80
2023-05-02T21:15:11.056Z,57.90
2023-05-02T21:17:40.788Z,58.00
2023-05-02T21:20:11.067Z,58.10
2023-05-02T21:22:42.117Z,58.20
2023-05-02T21:25:12.359Z,58.30
2023-05-02T21:27:41.822Z,58.50
2023-05-02T21:30:12.155Z,58.50
2023-05-02T21:32:41.280Z,58.70
2023-05-02T21:35:10.621Z,58.60
2023-05-02T21:37:41.205Z,58.70
2023-05-02T21:40:11.631Z,58.80
2023-05-02T21:42:40.978Z,58.90
2023-05-02T21:45:11.286Z,58.70
2023-05-02T21:47:40.464Z,58.60
2023-05-02T21:50:10.158Z,58.90
2023-05-02T21:52:39.264Z,58.70
2023-05-02T21:55:11.131Z,58.50
2023-05-02T21:57:40.912Z,58.50
2023-05-02T22:00:13.180Z,58.40
2023-05-02T22:02:43.306Z,58.40
2023-05-02T22:05:13.886Z,58.20
2023-05-02T22:07:43.169Z,58.30
2023-05-02T22:10:13.411Z,58.40
2023-05-02T22:12:42.378Z,58.30
2023-05-02T22:15:12.822Z,58.30
2023-05-02T22:17:43.226Z,58.40
2023-05-02T22:20:14.269Z,58.20
2023-05-02T22:22:43.555Z,57.80
2023-05-02T22:25:14.550Z,57.60
2023-05-02T22:27:43.750Z,57.60
2023-05-02T22:30:13.149Z,57.40
2023-05-02T22:32:42.494Z,57.20
2023-05-02T22:35:11.962Z,57.10
2023-05-02T22:37:41.086Z,57.00
2023-05-02T22:40:11.404Z,57.10
2023-05-02T22:42:41.962Z,57.00
2023-05-02T22:45:13.515Z,57.00
2023-05-02T22:47:42.602Z,56.90
2023-05-02T22:50:12.980Z,56.90
2023-05-02T22:52:42.134Z,56.90
2023-05-02T22:55:11.700Z,56.90
2023-05-02T22:57:42.321Z,56.90
2023-05-02T23:00:13.083Z,56.90
2023-05-02T23:02:42.499Z,57.00
2023-05-02T23:05:11.678Z,57.00
2023-05-02T23:07:41.099Z,57.00
2023-05-02T23:10:11.355Z,57.00
2023-05-02T23:12:42.755Z,57.00
2023-05-02T23:15:13.201Z,57.20
2023-05-02T23:17:43.470Z,57.20
2023-05-02T23:20:13.281Z,57.20
2023-05-02T23:22:46.101Z,57.20
2023-05-02T23:25:16.337Z,57.30
2023-05-02T23:27:47.274Z,57.40
2023-05-02T23:30:16.422Z,57.50
2023-05-02T23:32:46.331Z,57.40
2023-05-02T23:35:15.866Z,57.30
2023-05-02T23:37:45.194Z,57.30
2023-05-02T23:40:14.407Z,57.20
2023-05-02T23:42:43.710Z,57.20
2023-05-02T23:45:14.339Z,57.20
2023-05-02T23:47:43.601Z,57.30
2023-05-02T23:50:12.952Z,57.30
2023-05-02T23:52:42.363Z,57.40
2023-05-02T23:55:12.843Z,57.50
2023-05-02T23:57:42.687Z,57.40
